Time;durP1;ratioP1;P1;durP2;ratioP2;P2;SDS_P1;SDS_P2;PMS_P1;PMS_P2;Temp;Humidity;BMP_temperature;BMP_pressure;BME280_temperature;BME280_humidity;BME280_pressure;Samples;Min_cycle;Max_cycle;Signal;HPM_P1;HPM_P2
2023/10/28 00:01:34;;;;;;;;;1.25;1.25;;;;;14.00;89.77;99297.81;6185540;23;45370;-65
2023/10/28 00:04:02;;;;;;;;;4.50;1.00;;;;;14.03;89.35;99302.97;6185534;23;45459;-66
2023/10/28 00:06:27;;;;;;;;;5.75;2.25;;;;;14.03;89.62;99299.41;6185792;23;45443;-66
2023/10/28 00:08:52;;;;;;;;;4.50;2.00;;;;;14.03;89.36;99311.00;6185945;23;45255;-66
2023/10/28 00:11:19;;;;;;;;;1.50;1.50;;;;;14.03;89.13;99291.34;6185766;23;45228;-66
2023/10/28 00:13:45;;;;;;;;;1.50;1.00;;;;;14.01;89.31;99287.91;6185414;23;45249;-66
2023/10/28 00:16:10;;;;;;;;;3.25;3.25;;;;;14.02;89.17;99285.13;6185550;23;45288;-66
2023/10/28 00:18:36;;;;;;;;;1.75;0.75;;;;;14.02;89.31;99284.28;6184092;23;65289;-65
2023/10/28 00:21:02;;;;;;;;;2.75;2.75;;;;;13.97;89.34;99281.91;6185044;23;45390;-66
2023/10/28 00:23:31;;;;;;;;;2.25;1.75;;;;;13.96;89.36;99282.88;6185246;23;45315;-66
2023/10/28 00:26:04;;;;;;;;;3.25;2.50;;;;;13.98;89.29;99278.28;6185272;23;45284;-66
2023/10/28 00:28:32;;;;;;;;;1.50;1.50;;;;;13.94;89.15;99275.91;6158464;23;45461;-65
2023/10/28 00:30:59;;;;;;;;;2.50;1.50;;;;;13.90;89.38;99264.53;6185719;23;45161;-65
2023/10/28 00:33:25;;;;;;;;;1.50;1.50;;;;;13.88;89.78;99266.44;6184649;23;45429;-66
2023/10/28 00:35:50;;;;;;;;;1.25;1.25;;;;;13.92;89.46;99267.13;6185428;23;45269;-65
2023/10/28 00:38:15;;;;;;;;;1.00;1.00;;;;;13.90;89.72;99270.75;6184515;23;71885;-65
2023/10/28 00:40:42;;;;;;;;;2.50;2.00;;;;;13.84;89.58;99270.31;6183802;23;69604;-66
2023/10/28 00:43:10;;;;;;;;;3.50;2.00;;;;;13.86;89.95;99263.03;6185531;23;45308;-65
2023/10/28 00:45:35;;;;;;;;;2.75;1.75;;;;;13.85;89.93;99254.13;6184635;23;46211;-66
2023/10/28 00:48:01;;;;;;;;;1.00;1.00;;;;;13.92;89.86;99259.91;6184678;23;45186;-66
2023/10/28 00:50:29;;;;;;;;;1.00;1.00;;;;;13.90;89.99;99256.50;6157926;23;59829;-66
2023/10/28 00:52:58;;;;;;;;;2.25;1.00;;;;;13.86;90.37;99263.88;6208567;22;45443;-66
2023/10/28 00:55:24;;;;;;;;;3.25;2.00;;;;;13.86;90.23;99254.97;6184541;23;45352;-66
2023/10/28 00:57:50;;;;;;;;;2.00;1.25;;;;;13.89;90.59;99252.09;6184993;23;45393;-66
2023/10/28 01:00:15;;;;;;;;;2.50;1.00;;;;;13.88;90.59;99253.03;6185416;23;45522;-66
2023/10/28 01:02:42;;;;;;;;;3.75;1.00;;;;;13.89;90.40;99246.72;6184410;23;45360;-65
2023/10/28 01:05:11;;;;;;;;;4.00;2.00;;;;;13.85;90.53;99246.09;6183782;23;45406;-66
2023/10/28 01:07:38;;;;;;;;;3.50;2.50;;;;;13.89;90.34;99254.75;6184718;23;45607;-65
2023/10/28 01:10:04;;;;;;;;;2.50;1.00;;;;;13.92;90.44;99251.03;6185603;23;45321;-66
2023/10/28 01:12:30;;;;;;;;;3.25;1.00;;;;;13.90;90.46;99251.97;6185382;23;45400;-65
2023/10/28 01:14:56;;;;;;;;;1.50;0.25;;;;;13.93;90.46;99255.41;6184404;23;46194;-66
2023/10/28 01:17:25;;;;;;;;;2.00;1.00;;;;;13.87;90.77;99233.41;6184367;23;45545;-66
2023/10/28 01:19:51;;;;;;;;;1.00;1.00;;;;;13.95;90.46;99245.41;6185195;23;45273;-65
2023/10/28 01:22:16;;;;;;;;;4.75;2.00;;;;;13.96;91.07;99247.16;6184598;23;45489;-65
2023/10/28 01:24:42;;;;;;;;;3.50;1.00;;;;;13.98;91.09;99254.13;6184658;23;46047;-66
2023/10/28 01:27:09;;;;;;;;;1.50;1.00;;;;;13.97;90.98;99244.34;6184076;23;67045;-66
2023/10/28 01:29:35;;;;;;;;;3.75;2.00;;;;;13.95;90.81;99238.25;6184730;23;45324;-66
2023/10/28 01:32:02;;;;;;;;;4.75;1.00;;;;;13.98;90.80;99245.22;6185206;23;45483;-66
2023/10/28 01:34:28;;;;;;;;;1.00;1.00;;;;;13.98;90.62;99240.72;6182289;23;46084;-65
2023/10/28 01:36:55;;;;;;;;;1.25;1.00;;;;;13.96;90.90;99226.53;6185166;23;45170;-65
2023/10/28 01:39:20;;;;;;;;;2.00;1.00;;;;;13.94;90.77;99231.16;6185340;23;45241;-66
2023/10/28 01:41:46;;;;;;;;;1.00;0.75;;;;;13.90;90.87;99227.00;6184239;23;64410;-65
2023/10/28 01:44:11;;;;;;;;;1.00;1.00;;;;;13.90;90.82;99224.31;6157130;23;50792;-65
2023/10/28 01:46:37;;;;;;;;;5.50;0.25;;;;;13.97;91.55;99225.59;6184953;23;45328;-66
2023/10/28 01:49:03;;;;;;;;;1.00;1.00;;;;;13.93;90.92;99223.22;6185579;23;45324;-66
2023/10/28 01:51:28;;;;;;;;;1.00;1.00;;;;;13.92;91.21;99219.69;6185762;23;45309;-66
2023/10/28 01:53:55;;;;;;;;;2.00;1.00;;;;;13.97;90.90;99224.72;6185824;23;45321;-66
2023/10/28 01:56:20;;;;;;;;;1.00;0.00;;;;;13.98;91.00;99229.13;6185835;23;45530;-65
2023/10/28 01:58:45;;;;;;;;;1.75;0.50;;;;;14.02;91.20;99227.94;6185284;23;45443;-66
2023/10/28 02:01:11;;;;;;;;;2.00;1.00;;;;;14.04;90.87;99223.31;6185548;23;45407;-65
2023/10/28 02:03:37;;;;;;;;;4.00;1.50;;;;;14.03;90.68;99227.84;6186028;23;45737;-65
2023/10/28 02:06:03;;;;;;;;;1.50;1.00;;;;;14.00;90.76;99229.84;6186171;23;45411;-65
2023/10/28 02:08:28;;;;;;;;;2.50;1.00;;;;;13.93;90.89;99221.38;6185955;23;45218;-66
2023/10/28 02:10:53;;;;;;;;;2.00;1.00;;;;;13.95;90.95;99218.59;6186193;23;45364;-65
2023/10/28 02:13:18;;;;;;;;;1.25;1.25;;;;;14.01;91.16;99229.75;6185060;23;75452;-65
2023/10/28 02:15:47;;;;;;;;;2.00;1.00;;;;;14.01;90.95;99228.91;6185853;23;50272;-65
2023/10/28 02:18:13;;;;;;;;;2.50;0.75;;;;;14.02;91.01;99222.59;6186152;23;45458;-66
2023/10/28 02:20:39;;;;;;;;;3.25;1.50;;;;;13.99;90.76;99220.09;6184295;23;72984;-65
2023/10/28 02:23:04;;;;;;;;;1.50;1.00;;;;;14.03;90.79;99217.09;6186075;23;45339;-65
2023/10/28 02:25:30;;;;;;;;;1.00;1.00;;;;;14.05;91.06;99225.06;6186052;23;45309;-65
2023/10/28 02:27:55;;;;;;;;;3.00;1.50;;;;;14.02;91.03;99212.69;6186416;23;45277;-65
2023/10/28 02:30:20;;;;;;;;;1.00;1.00;;;;;14.04;90.66;99210.75;6185122;23;67188;-65
2023/10/28 02:32:45;;;;;;;;;2.50;0.75;;;;;14.01;90.76;99212.81;6185937;23;46031;-65
2023/10/28 02:35:11;;;;;;;;;3.25;2.00;;;;;13.99;90.87;99193.28;6158371;23;45683;-65
2023/10/28 02:37:36;;;;;;;;;2.25;0.00;;;;;14.02;90.62;99191.22;6185687;23;58029;-65
2023/10/28 02:40:03;;;;;;;;;0.00;0.00;;;;;14.05;90.75;99201.75;6184218;23;45249;-66
2023/10/28 02:42:29;;;;;;;;;4.75;1.50;;;;;14.08;90.93;99193.50;6186036;23;45320;-65
2023/10/28 02:44:54;;;;;;;;;0.50;0.50;;;;;14.07;90.67;99188.22;6185801;23;45449;-65
2023/10/28 02:47:20;;;;;;;;;1.00;1.00;;;;;14.03;90.95;99181.34;6185149;23;62306;-66
2023/10/28 02:49:45;;;;;;;;;0.50;0.50;;;;;14.08;90.69;99189.94;6185604;23;45415;-66
2023/10/28 02:52:11;;;;;;;;;0.75;0.75;;;;;14.12;90.93;99191.44;6185613;23;60578;-65
2023/10/28 02:54:37;;;;;;;;;1.00;1.00;;;;;14.13;90.57;99182.41;6185545;23;45454;-66
2023/10/28 02:57:03;;;;;;;;;2.00;1.00;;;;;14.18;90.71;99187.44;6185930;23;45367;-66
2023/10/28 02:59:29;;;;;;;;;0.25;0.00;;;;;14.18;90.71;99188.31;6185614;23;45666;-66
2023/10/28 03:01:54;;;;;;;;;2.00;1.00;;;;;14.12;90.89;99169.97;6186132;23;45253;-65
2023/10/28 03:04:19;;;;;;;;;0.25;0.25;;;;;14.10;90.67;99155.81;6185774;23;45323;-65
2023/10/28 03:06:45;;;;;;;;;2.00;1.00;;;;;14.19;90.74;99173.06;6185702;23;45315;-65
2023/10/28 03:09:11;;;;;;;;;1.75;0.25;;;;;14.19;90.47;99173.91;6186345;23;45353;-65
2023/10/28 03:11:37;;;;;;;;;0.50;0.00;;;;;14.17;90.33;99159.75;6186154;23;45294;-65
2023/10/28 03:14:03;;;;;;;;;0.25;0.25;;;;;14.21;90.10;99173.81;6185530;23;45270;-65
2023/10/28 03:16:28;;;;;;;;;0.75;0.75;;;;;14.22;89.91;99191.63;6185673;23;45302;-66
2023/10/28 03:18:53;;;;;;;;;1.00;1.00;;;;;14.22;90.06;99197.84;6185583;23;45245;-65
2023/10/28 03:21:19;;;;;;;;;1.00;0.75;;;;;14.22;89.89;99199.69;6184631;23;67413;-66
2023/10/28 03:23:44;;;;;;;;;0.00;0.00;;;;;14.18;89.85;99212.47;6184079;23;45456;-65
2023/10/28 03:26:09;;;;;;;;;1.00;1.00;;;;;14.13;89.92;99211.06;6186217;23;45204;-66
2023/10/28 03:28:35;;;;;;;;;0.00;0.00;;;;;14.11;90.04;99202.28;6185930;23;45236;-65
2023/10/28 03:31:06;;;;;;;;;0.00;0.00;;;;;14.12;89.57;99204.00;6184961;23;74760;-66
2023/10/28 03:33:32;;;;;;;;;2.00;0.00;;;;;14.13;89.73;99219.13;6185876;23;45269;-66
2023/10/28 03:35:57;;;;;;;;;0.75;0.75;;;;;14.07;89.53;99193.59;6186222;23;45944;-65
2023/10/28 03:38:22;;;;;;;;;0.50;0.50;;;;;14.03;89.73;99203.69;6209496;22;45502;-66
2023/10/28 03:40:48;;;;;;;;;1.00;1.00;;;;;14.08;89.37;99206.03;6185861;23;48879;-65
2023/10/28 03:43:13;;;;;;;;;1.25;0.25;;;;;14.12;89.60;99202.16;6185404;23;45248;-66
2023/10/28 03:45:39;;;;;;;;;0.00;0.00;;;;;14.13;89.76;99203.03;6209270;22;45309;-66
2023/10/28 03:48:04;;;;;;;;;1.75;1.75;;;;;14.07;89.40;99199.81;6185530;23;45358;-66
2023/10/28 03:50:30;;;;;;;;;1.75;1.00;;;;;14.10;89.21;99206.78;6185218;23;46844;-66
2023/10/28 03:52:55;;;;;;;;;1.75;0.25;;;;;14.01;89.47;99191.34;6185904;23;45264;-66
2023/10/28 03:55:20;;;;;;;;;2.00;0.00;;;;;14.06;89.29;99224.91;6184733;23;64892;-65
2023/10/28 03:57:46;;;;;;;;;1.00;1.00;;;;;14.07;89.26;99223.97;6183910;23;69181;-65
2023/10/28 04:00:13;;;;;;;;;3.25;1.00;;;;;14.02;89.47;99209.16;6185370;23;58432;-66
2023/10/28 04:02:38;;;;;;;;;0.00;0.00;;;;;14.07;89.25;99225.78;6185403;23;45586;-66
2023/10/28 04:05:04;;;;;;;;;2.00;0.75;;;;;14.04;89.35;99226.84;6184822;23;45380;-66
2023/10/28 04:07:29;;;;;;;;;0.00;0.00;;;;;13.97;89.48;99217.53;6185873;23;45304;-65
2023/10/28 04:09:54;;;;;;;;;3.25;1.00;;;;;14.04;89.35;99234.91;6185195;23;46283;-66
2023/10/28 04:12:20;;;;;;;;;0.25;0.25;;;;;14.03;89.53;99235.00;6184546;23;68012;-66
2023/10/28 04:14:45;;;;;;;;;2.75;1.00;;;;;13.95;89.65;99210.53;6185754;23;45483;-66
2023/10/28 04:17:11;;;;;;;;;0.00;0.00;;;;;13.99;89.36;99223.63;6185555;23;45288;-66
2023/10/28 04:19:37;;;;;;;;;2.00;1.00;;;;;13.91;89.72;99226.00;6184925;23;46238;-65
2023/10/28 04:22:02;;;;;;;;;2.25;0.25;;;;;13.97;89.79;99235.47;6184889;23;45288;-66
2023/10/28 04:24:27;;;;;;;;;0.00;0.00;;;;;13.99;89.86;99239.72;6185522;23;45485;-66
2023/10/28 04:26:53;;;;;;;;;3.00;1.00;;;;;14.00;89.59;99254.88;6184663;23;45252;-66
2023/10/28 04:29:18;;;;;;;;;2.25;1.00;;;;;14.01;89.65;99247.69;6184093;23;70253;-66
2023/10/28 04:31:43;;;;;;;;;1.25;1.00;;;;;14.03;89.99;99254.66;6185589;23;45240;-66
2023/10/28 04:34:08;;;;;;;;;0.50;0.50;;;;;14.03;89.51;99243.94;6185215;23;45294;-66
2023/10/28 04:36:35;;;;;;;;;1.75;1.00;;;;;14.03;89.55;99237.69;6185424;23;46580;-65
2023/10/28 04:39:00;;;;;;;;;2.00;1.00;;;;;14.04;89.50;99240.25;6185673;23;45273;-65
2023/10/28 04:41:25;;;;;;;;;1.25;0.00;;;;;14.04;89.40;99248.31;6184452;23;72117;-66
2023/10/28 04:43:50;;;;;;;;;2.25;2.25;;;;;14.01;89.50;99243.16;6185577;23;45258;-66
2023/10/28 04:46:16;;;;;;;;;1.00;1.00;;;;;14.02;89.44;99255.63;6158464;23;45445;-66
2023/10/28 04:48:46;;;;;;;;;2.00;1.00;;;;;14.03;89.71;99249.31;6184134;23;74433;-65
2023/10/28 04:51:12;;;;;;;;;1.25;0.50;;;;;14.03;89.55;99262.72;6184764;23;45388;-65
2023/10/28 04:53:37;;;;;;;;;1.50;0.75;;;;;13.99;89.41;99252.31;6184950;23;45511;-66
2023/10/28 04:56:03;;;;;;;;;3.50;1.75;;;;;13.94;90.00;99241.03;6158102;23;45324;-66
2023/10/28 04:58:28;;;;;;;;;1.75;1.00;;;;;14.01;89.84;99245.84;6184937;23;45249;-66
2023/10/28 05:00:54;;;;;;;;;3.00;1.00;;;;;14.02;89.62;99250.25;6185018;23;45344;-65
2023/10/28 05:03:20;;;;;;;;;2.00;1.00;;;;;14.04;89.57;99256.38;6185209;23;45321;-65
2023/10/28 05:05:46;;;;;;;;;0.00;0.00;;;;;14.03;89.53;99254.66;6184349;23;65647;-65
2023/10/28 05:08:11;;;;;;;;;0.25;0.25;;;;;14.07;89.64;99253.47;6185462;23;46580;-66
2023/10/28 05:10:36;;;;;;;;;4.25;1.50;;;;;14.03;89.71;99251.09;6185435;23;45439;-66
2023/10/28 05:13:03;;;;;;;;;1.25;1.00;;;;;14.09;89.49;99259.56;6184258;23;69619;-66
2023/10/28 05:15:28;;;;;;;;;4.00;2.00;;;;;14.13;89.53;99256.69;6184970;23;45535;-65
2023/10/28 05:17:54;;;;;;;;;1.25;1.00;;;;;14.15;89.06;99252.06;6184918;23;46919;-66
2023/10/28 05:20:21;;;;;;;;;0.00;0.00;;;;;14.08;89.36;99247.16;6184913;23;45273;-66
2023/10/28 05:22:46;;;;;;;;;4.50;1.00;;;;;14.17;89.10;99268.94;6185285;23;45337;-66
2023/10/28 05:25:12;;;;;;;;;1.00;1.00;;;;;14.15;88.86;99262.78;6186256;23;45245;-66
2023/10/28 05:27:38;;;;;;;;;4.00;1.25;;;;;14.15;88.90;99260.09;6186226;23;46226;-66
2023/10/28 05:30:03;;;;;;;;;3.25;1.00;;;;;14.12;89.08;99250.47;6186320;23;45269;-66
2023/10/28 05:32:32;;;;;;;;;3.25;1.00;;;;;14.16;89.03;99264.53;6186949;23;45286;-65
2023/10/28 05:34:57;;;;;;;;;2.25;0.00;;;;;14.18;89.35;99262.59;6185611;23;45411;-66
2023/10/28 05:37:23;;;;;;;;;3.00;1.00;;;;;14.19;88.94;99259.78;6186063;23;46957;-66
2023/10/28 05:39:49;;;;;;;;;2.50;0.00;;;;;14.13;89.08;99256.69;6186212;23;45496;-66
2023/10/28 05:42:14;;;;;;;;;0.25;0.25;;;;;14.17;88.93;99255.53;6186549;23;45335;-66
2023/10/28 05:44:40;;;;;;;;;1.50;1.50;;;;;14.22;88.74;99269.47;6186022;23;45324;-66
2023/10/28 05:47:07;;;;;;;;;1.50;1.25;;;;;14.19;88.94;99267.84;6185757;23;46973;-66
2023/10/28 05:49:33;;;;;;;;;1.50;1.00;;;;;14.19;88.87;99265.16;6186012;23;45418;-65
2023/10/28 05:51:58;;;;;;;;;3.75;2.00;;;;;14.15;89.22;99262.78;6186158;23;45439;-65
2023/10/28 05:54:24;;;;;;;;;1.25;1.25;;;;;14.17;88.85;99267.09;6185735;23;45246;-66
2023/10/28 05:56:49;;;;;;;;;2.00;1.00;;;;;14.20;88.97;99274.06;6184934;23;74960;-66
2023/10/28 05:59:15;;;;;;;;;1.75;1.75;;;;;14.22;88.93;99280.19;6186166;23;45421;-65
2023/10/28 06:01:40;;;;;;;;;1.25;0.50;;;;;14.26;88.73;99277.16;6186251;23;45262;-66
2023/10/28 06:04:06;;;;;;;;;6.25;1.50;;;;;14.25;88.61;99286.19;6185922;23;45475;-65
2023/10/28 06:06:32;;;;;;;;;1.00;0.50;;;;;14.25;88.86;99280.84;6158717;23;45841;-66
2023/10/28 06:08:57;;;;;;;;;3.25;1.00;;;;;14.24;88.71;99276.41;6185660;23;45298;-66
2023/10/28 06:11:23;;;;;;;;;2.00;1.00;;;;;14.25;88.51;99278.16;6186474;23;45601;-66
2023/10/28 06:13:48;;;;;;;;;2.50;0.50;;;;;14.27;88.53;99283.41;6185743;23;45530;-66
2023/10/28 06:16:13;;;;;;;;;3.25;1.00;;;;;14.26;88.55;99279.84;6186466;23;45953;-66
2023/10/28 06:18:39;;;;;;;;;2.50;1.25;;;;;14.19;88.45;99267.00;6185623;23;45310;-65
2023/10/28 06:21:05;;;;;;;;;3.00;0.75;;;;;14.24;88.19;99279.09;6186353;23;45288;-65
2023/10/28 06:23:30;;;;;;;;;2.25;1.25;;;;;14.27;88.48;99281.56;6185371;23;45575;-66
2023/10/28 06:25:55;;;;;;;;;3.00;2.00;;;;;14.28;88.52;99285.09;6186155;23;45497;-66
2023/10/28 06:28:21;;;;;;;;;0.75;0.00;;;;;14.26;88.25;99282.53;6185719;23;57472;-66
2023/10/28 06:30:47;;;;;;;;;3.00;2.00;;;;;14.26;88.77;99279.00;6186502;23;45320;-66
2023/10/28 06:33:13;;;;;;;;;1.00;1.00;;;;;14.24;88.38;99287.16;6186007;23;45293;-65
2023/10/28 06:35:38;;;;;;;;;1.25;1.00;;;;;14.25;88.53;99288.88;6185544;23;46446;-66
2023/10/28 06:38:03;;;;;;;;;2.25;1.00;;;;;14.25;88.19;99296.94;6186204;23;45261;-66
2023/10/28 06:40:29;;;;;;;;;3.00;1.00;;;;;14.17;88.39;99277.00;6186392;23;45257;-65
2023/10/28 06:42:56;;;;;;;;;1.75;1.00;;;;;14.22;88.38;99293.63;6184593;23;72121;-66
2023/10/28 06:45:21;;;;;;;;;2.75;2.00;;;;;14.21;88.16;99289.22;6185072;23;46294;-66
2023/10/28 06:47:47;;;;;;;;;2.00;1.00;;;;;14.21;88.26;99299.94;6185195;23;45311;-65
2023/10/28 06:50:12;;;;;;;;;2.00;0.00;;;;;14.20;88.43;99295.53;6183926;23;55029;-72
2023/10/28 06:52:39;;;;;;;;;3.75;1.50;;;;;14.15;88.26;99289.63;6186133;23;45354;-72
2023/10/28 06:55:05;;;;;;;;;2.75;1.75;;;;;14.15;88.28;99289.63;6184641;23;47096;-73
2023/10/28 06:57:30;;;;;;;;;1.75;1.75;;;;;14.23;88.41;99304.25;6182869;23;45749;-71
2023/10/28 06:59:57;;;;;;;;;1.50;1.00;;;;;14.11;88.16;99282.78;6185277;23;45321;-71
2023/10/28 07:02:23;;;;;;;;;1.50;1.00;;;;;14.14;88.25;99291.47;6185430;23;45353;-71
2023/10/28 07:04:48;;;;;;;;;1.00;0.75;;;;;14.15;88.41;99295.00;6184048;23;45982;-70
2023/10/28 07:07:14;;;;;;;;;2.00;1.00;;;;;14.21;88.38;99299.94;6159203;23;45564;-70
2023/10/28 07:09:40;;;;;;;;;2.50;1.00;;;;;14.12;88.21;99296.09;6184562;23;45336;-71
2023/10/28 07:12:06;;;;;;;;;1.25;1.00;;;;;14.12;88.39;99295.25;6183817;23;45408;-70
2023/10/28 07:14:31;;;;;;;;;3.75;1.00;;;;;14.21;88.71;99308.84;6156894;23;47102;-70
2023/10/28 07:16:56;;;;;;;;;1.00;1.00;;;;;14.19;88.39;99313.47;6183864;23;45217;-70
2023/10/28 07:19:21;;;;;;;;;1.00;1.00;;;;;14.23;88.79;99323.03;6184984;23;48658;-71
2023/10/28 07:21:47;;;;;;;;;2.00;2.00;;;;;14.19;88.57;99307.25;6158501;23;61322;-71
2023/10/28 07:24:12;;;;;;;;;1.25;1.00;;;;;14.13;88.73;99305.84;6208655;22;47317;-70
2023/10/28 07:26:38;;;;;;;;;3.00;1.75;;;;;14.15;88.87;99311.09;6185010;23;49438;-72
2023/10/28 07:29:06;;;;;;;;;0.75;0.75;;;;;14.07;88.89;99308.97;6185816;23;45335;-72
2023/10/28 07:31:31;;;;;;;;;2.00;2.00;;;;;14.19;88.71;99323.34;6158582;23;45364;-72
2023/10/28 07:33:57;;;;;;;;;3.00;2.00;;;;;14.22;88.84;99334.72;6158189;23;48174;-72
2023/10/28 07:36:22;;;;;;;;;1.00;1.00;;;;;14.30;88.92;99336.00;6185647;23;45247;-72
2023/10/28 07:38:48;;;;;;;;;0.50;0.25;;;;;14.30;88.49;99354.78;6158562;23;45360;-72
2023/10/28 07:41:13;;;;;;;;;4.50;1.50;;;;;14.21;88.82;99343.72;6185864;23;45360;-71
2023/10/28 07:43:39;;;;;;;;;4.25;1.00;;;;;14.28;88.57;99352.22;6183558;23;45221;-66
2023/10/28 07:46:04;;;;;;;;;1.00;1.00;;;;;14.32;88.73;99361.78;6184906;22;45374;-66
2023/10/28 07:48:30;;;;;;;;;5.00;2.00;;;;;14.25;88.64;99353.31;6185634;23;45448;-66
2023/10/28 07:50:55;;;;;;;;;1.00;1.00;;;;;14.34;88.50;99365.22;6183570;23;45326;-66
2023/10/28 07:53:21;;;;;;;;;3.00;2.00;;;;;14.36;88.76;99367.78;6183254;23;45256;-66
2023/10/28 07:55:47;;;;;;;;;0.75;0.00;;;;;14.34;88.61;99367.03;6183826;23;45414;-66
2023/10/28 07:58:12;;;;;;;;;1.75;1.00;;;;;14.31;88.70;99367.25;6155750;23;45388;-65
2023/10/28 08:00:37;;;;;;;;;2.50;1.25;;;;;14.30;88.80;99373.56;6182537;23;45410;-66
2023/10/28 08:03:03;;;;;;;;;1.75;1.75;;;;;14.08;88.86;99337.50;6180601;23;46302;-65
2023/10/28 08:05:29;;;;;;;;;2.25;1.25;;;;;14.33;88.73;99386.78;6182354;23;45467;-66
2023/10/28 08:07:54;;;;;;;;;2.00;1.00;;;;;14.34;88.89;99373.25;6184627;23;45610;-66
2023/10/28 08:10:23;;;;;;;;;1.00;1.00;;;;;14.32;88.63;99375.19;6185939;23;45551;-66
2023/10/28 08:12:52;;;;;;;;;2.00;0.50;;;;;14.31;89.01;99378.00;6159299;23;46020;-65
2023/10/28 08:15:20;;;;;;;;;3.00;2.00;;;;;14.31;88.92;99384.22;6184948;23;45368;-66
2023/10/28 08:17:45;;;;;;;;;4.25;2.00;;;;;14.33;89.18;99386.78;6185744;23;45686;-66
2023/10/28 08:20:11;;;;;;;;;1.00;1.00;;;;;14.32;89.21;99388.63;6183897;23;73133;-66
2023/10/28 08:22:37;;;;;;;;;1.00;1.00;;;;;14.28;89.08;99368.31;6158315;23;48041;-66
2023/10/28 08:25:04;;;;;;;;;1.75;1.00;;;;;14.31;89.22;99381.53;6155244;23;45545;-66
2023/10/28 08:27:31;;;;;;;;;1.00;1.00;;;;;14.33;89.25;99378.75;6185352;23;45420;-66
2023/10/28 08:30:01;;;;;;;;;1.25;1.25;;;;;14.31;89.22;99380.69;6185469;23;45529;-66
2023/10/28 08:32:27;;;;;;;;;1.25;1.00;;;;;14.31;89.52;99375.31;6184824;23;46088;-66
2023/10/28 08:34:54;;;;;;;;;2.00;1.25;;;;;14.27;89.61;99375.53;6184733;23;45238;-66
2023/10/28 08:37:21;;;;;;;;;0.50;0.00;;;;;14.26;89.67;99368.41;6183269;23;45386;-66
2023/10/28 08:39:46;;;;;;;;;1.50;1.50;;;;;14.30;89.48;99371.78;6184237;23;45283;-66
2023/10/28 08:42:13;;;;;;;;;1.00;1.00;;;;;14.34;89.54;99378.63;6185141;23;45597;-66
2023/10/28 08:44:40;;;;;;;;;1.00;1.00;;;;;14.40;89.41;99367.47;6184911;23;45674;-66
2023/10/28 08:47:09;;;;;;;;;1.00;1.00;;;;;14.40;89.35;99364.78;6185598;23;45339;-66
2023/10/28 08:49:36;;;;;;;;;2.75;1.00;;;;;14.37;89.07;99348.03;6179192;23;45632;-66
2023/10/28 08:52:02;;;;;;;;;1.00;1.00;;;;;14.40;89.16;99351.38;6180663;23;46238;-66
2023/10/28 08:54:28;;;;;;;;;0.75;0.75;;;;;14.43;89.37;99355.66;6180847;23;45728;-66
2023/10/28 08:57:00;;;;;;;;;0.00;0.00;;;;;14.38;89.09;99344.38;6181870;23;45415;-66
2023/10/28 08:59:27;;;;;;;;;1.00;0.00;;;;;14.43;89.19;99342.22;6182299;23;45467;-66
2023/10/28 09:01:52;;;;;;;;;1.00;1.00;;;;;14.46;89.27;99345.53;6181432;23;45495;-66
2023/10/28 09:04:21;;;;;;;;;0.50;0.50;;;;;14.49;89.07;99338.25;6181463;23;45455;-66
2023/10/28 09:06:52;;;;;;;;;2.00;1.00;;;;;14.49;88.86;99349.00;6182197;23;45384;-65
2023/10/28 09:09:18;;;;;;;;;2.00;1.00;;;;;14.42;89.15;99329.78;6181067;23;45721;-65
2023/10/28 09:11:45;;;;;;;;;1.00;1.00;;;;;14.49;89.00;99339.13;6180922;23;47044;-66
2023/10/28 09:14:11;;;;;;;;;2.25;0.75;;;;;14.49;89.12;99335.56;6180942;23;58738;-66
2023/10/28 09:16:36;;;;;;;;;0.00;0.00;;;;;14.52;89.07;99341.59;6182129;23;45784;-65
2023/10/28 09:19:03;;;;;;;;;1.00;1.00;;;;;14.48;88.98;99332.00;6180944;23;45747;-66
2023/10/28 09:21:29;;;;;;;;;1.00;1.00;;;;;14.53;88.70;99342.44;6155019;23;47589;-66
2023/10/28 09:24:00;;;;;;;;;2.00;1.00;;;;;14.54;89.02;99338.78;6181669;23;45437;-66
2023/10/28 09:26:25;;;;;;;;;2.00;0.00;;;;;14.55;88.72;99338.69;6181949;23;45729;-66
2023/10/28 09:28:50;;;;;;;;;2.00;0.50;;;;;14.44;88.84;99315.28;6182146;23;45964;-66
2023/10/28 09:31:23;;;;;;;;;1.50;1.00;;;;;14.56;89.12;99344.91;6181400;23;60547;-66
2023/10/28 09:33:50;;;;;;;;;1.00;1.00;;;;;14.55;89.12;99327.94;6180803;23;45588;-66
2023/10/28 09:36:15;;;;;;;;;0.00;0.00;;;;;14.53;89.10;99327.16;6181865;23;45622;-66
2023/10/28 09:38:43;;;;;;;;;2.25;1.00;;;;;14.51;89.19;99320.22;6155229;23;45519;-66
2023/10/28 09:41:10;;;;;;;;;1.00;0.25;;;;;14.59;88.88;99326.78;6181705;23;46276;-67
2023/10/28 09:43:36;;;;;;;;;1.00;1.00;;;;;14.62;88.87;99325.72;6181475;23;45483;-66
2023/10/28 09:46:03;;;;;;;;;0.00;0.00;;;;;14.61;88.43;99326.66;6181659;23;45498;-66
2023/10/28 09:48:38;;;;;;;;;1.00;0.25;;;;;14.66;88.41;99321.81;6180803;23;45491;-66
2023/10/28 09:51:05;;;;;;;;;1.00;0.00;;;;;14.69;88.51;99320.75;6181593;23;47111;-66
2023/10/28 09:53:34;;;;;;;;;0.75;0.75;;;;;14.68;88.82;99311.81;6186116;23;45423;-66
2023/10/28 09:56:02;;;;;;;;;0.75;0.75;;;;;14.70;88.51;99311.72;6186241;23;45604;-65
2023/10/28 09:58:35;;;;;;;;;0.50;0.25;;;;;14.69;88.57;99302.81;6185907;23;45356;-66
2023/10/28 10:01:25;;;;;;;;;0.00;0.00;;;;;14.72;88.50;99302.59;6186278;23;45311;-66
2023/10/28 10:04:15;;;;;;;;;1.50;0.75;;;;;14.73;88.55;99301.59;6185715;23;45606;-66
2023/10/28 10:06:42;;;;;;;;;1.25;0.25;;;;;14.71;88.52;99287.44;6185695;23;45429;-66
2023/10/28 10:09:12;;;;;;;;;1.00;1.00;;;;;14.79;88.32;99300.31;6159155;23;46239;-66
2023/10/28 10:11:42;;;;;;;;;3.25;3.00;;;;;14.73;87.88;99290.84;6183888;23;46374;-65
2023/10/28 10:14:12;;;;;;;;;0.00;0.00;;;;;14.79;88.18;99301.16;6184775;23;45362;-65
2023/10/28 10:17:02;;;;;;;;;3.50;1.00;;;;;14.81;88.08;99304.59;6185911;23;45308;-65
2023/10/28 10:19:33;;;;;;;;;1.50;0.75;;;;;14.80;87.66;99308.25;6185771;23;45276;-65
2023/10/28 10:22:02;;;;;;;;;1.00;0.00;;;;;14.82;87.73;99337.72;6184699;23;46944;-65
2023/10/28 10:24:28;;;;;;;;;0.50;0.50;;;;;14.79;87.45;99343.28;6184562;23;45553;-65
2023/10/28 10:26:57;;;;;;;;;1.00;0.50;;;;;14.79;87.30;99348.66;6185746;23;54578;-65
2023/10/28 10:29:26;;;;;;;;;1.25;1.00;;;;;14.76;87.75;99354.25;6185703;23;45209;-65
2023/10/28 10:31:52;;;;;;;;;0.25;0.25;;;;;14.84;87.80;99373.38;6185582;23;46922;-65
2023/10/28 10:34:39;;;;;;;;;1.00;1.00;;;;;14.84;87.31;99359.94;6184815;23;45406;-65
2023/10/28 10:37:06;;;;;;;;;2.75;1.75;;;;;14.75;87.36;99353.41;6185449;23;45315;-65
2023/10/28 10:39:46;;;;;;;;;0.75;0.75;;;;;14.87;87.24;99372.28;6185954;23;45549;-65
2023/10/28 10:42:12;;;;;;;;;0.00;0.00;;;;;14.90;87.02;99369.38;6185718;23;46364;-65
2023/10/28 10:44:38;;;;;;;;;0.00;0.00;;;;;14.91;86.95;99376.47;6183750;23;45996;-65
2023/10/28 10:47:08;;;;;;;;;1.00;1.00;;;;;14.88;86.70;99358.72;6186552;23;45387;-65
2023/10/28 10:49:35;;;;;;;;;1.00;1.00;;;;;14.90;86.92;99366.69;6185321;23;45376;-65
2023/10/28 10:52:02;;;;;;;;;1.75;0.25;;;;;14.91;86.99;99358.50;6158994;23;47279;-65
2023/10/28 10:54:29;;;;;;;;;0.25;0.25;;;;;14.92;86.88;99333.38;6185168;23;45525;-64
2023/10/28 10:56:54;;;;;;;;;6.00;1.00;;;;;14.95;86.88;99334.97;6184382;23;45319;-65
2023/10/28 10:59:19;;;;;;;;;1.00;1.00;;;;;14.97;86.72;99328.53;6184186;23;64839;-65
2023/10/28 11:01:46;;;;;;;;;0.25;0.25;;;;;14.97;85.96;99327.66;6182758;23;75666;-65
2023/10/28 11:04:11;;;;;;;;;1.00;1.00;;;;;14.93;85.90;99321.63;6180510;23;45423;-66
2023/10/28 11:06:37;;;;;;;;;0.50;0.50;;;;;14.96;86.18;99321.41;6180789;23;45453;-66
2023/10/28 11:09:03;;;;;;;;;0.00;0.00;;;;;15.00;86.19;99330.09;6181584;23;45676;-66
2023/10/28 11:11:29;;;;;;;;;0.00;0.00;;;;;14.92;85.80;99313.72;6181617;23;45379;-65
2023/10/28 11:13:55;;;;;;;;;0.00;0.00;;;;;15.03;85.35;99334.41;6154734;23;45707;-66
2023/10/28 11:16:23;;;;;;;;;0.00;0.00;;;;;15.04;85.53;99328.09;6181829;23;45378;-66
2023/10/28 11:18:49;;;;;;;;;1.00;1.00;;;;;15.08;85.36;99329.56;6179611;23;45568;-66
2023/10/28 11:21:15;;;;;;;;;0.50;0.50;;;;;15.10;85.13;99328.47;6180725;23;45546;-65
2023/10/28 11:23:41;;;;;;;;;2.50;1.00;;;;;15.09;85.27;99321.38;6181040;23;45974;-66
2023/10/28 11:26:06;;;;;;;;;0.00;0.00;;;;;15.12;84.79;99320.31;6181039;23;45416;-66
2023/10/28 11:28:33;;;;;;;;;1.00;1.00;;;;;15.12;84.86;99313.09;6180642;23;45483;-66
2023/10/28 11:30:59;;;;;;;;;0.00;0.00;;;;;15.11;84.31;99323.97;6180293;23;47301;-66